Time;durP1;ratioP1;P1;durP2;ratioP2;P2;SDS_P1;SDS_P2;PMS_P1;PMS_P2;Temp;Humidity;BMP_temperature;BMP_pressure;BME280_temperature;BME280_humidity;BME280_pressure;Samples;Min_cycle;Max_cycle;Signal;HPM_P1;HPM_P2
2022/03/24 00:00:15;;;;;;;;;;;;;;;6.68;34.25;100491.50;3130570;28;19920;-69
2022/03/24 00:01:47;;;;;;;;;;;;;;;6.68;34.29;100490.66;3131630;28;19940;-69
2022/03/24 00:03:19;;;;;;;;;;;;;;;6.66;34.36;100498.47;3129221;28;19921;-69
2022/03/24 00:04:49;;;;;;;;;;;;;;;6.65;34.44;100490.72;3134920;28;20038;-69
2022/03/24 00:06:21;;;;;;;;;;;;;;;6.65;34.41;100488.13;3134296;28;19933;-69
2022/03/24 00:07:55;;;;;;;;;;;;;;;6.64;34.34;100481.25;3125489;28;19925;-70
2022/03/24 00:09:26;;;;;;;;;;;;;;;6.63;34.49;100488.19;3129648;28;20015;-69
2022/03/24 00:11:00;;;;;;;;;;;;;;;6.62;34.39;100476.09;3133740;28;19924;-69
2022/03/24 00:12:34;;;;;;;;;;;;;;;6.60;34.40;100481.31;3130058;28;20774;-69
2022/03/24 00:14:05;;;;;;;;;;;;;;;6.59;34.49;100482.19;3127577;28;19927;-68
2022/03/24 00:15:37;;;;;;;;;;;;;;;6.58;34.47;100472.72;3127878;28;19925;-69
2022/03/24 00:17:09;;;;;;;;;;;;;;;6.57;34.53;100473.59;3132019;28;20477;-69
2022/03/24 00:18:40;;;;;;;;;;;;;;;6.55;34.55;100472.78;3134437;28;19974;-69
2022/03/24 00:20:12;;;;;;;;;;;;;;;6.52;34.80;100478.00;3130627;28;20349;-69
2022/03/24 00:21:44;;;;;;;;;;;;;;;6.51;34.67;100475.47;3127015;28;19971;-69
2022/03/24 00:23:17;;;;;;;;;;;;;;;6.50;34.68;100471.16;3133873;28;20470;-69
2022/03/24 00:24:48;;;;;;;;;;;;;;;6.48;34.82;100468.59;3133901;28;20015;-69
2022/03/24 00:26:20;;;;;;;;;;;;;;;6.47;34.89;100472.06;3136435;28;20401;-69
2022/03/24 00:27:51;;;;;;;;;;;;;;;6.45;34.87;100463.47;3122503;28;19925;-70
2022/03/24 00:29:23;;;;;;;;;;;;;;;6.44;34.95;100456.59;3130431;28;20073;-70
2022/03/24 00:30:54;;;;;;;;;;;;;;;6.36;34.95;100448.13;3131761;28;19924;-69
2022/03/24 00:32:26;;;;;;;;;;;;;;;6.41;34.96;100461.81;3132674;28;20072;-70
2022/03/24 00:33:58;;;;;;;;;;;;;;;6.40;35.03;100454.94;3125274;28;19924;-70
2022/03/24 00:35:30;;;;;;;;;;;;;;;6.37;34.98;100457.59;3132418;28;19920;-69
2022/03/24 00:37:04;;;;;;;;;;;;;;;6.36;35.11;100459.31;3126701;28;19924;-69
2022/03/24 00:38:37;;;;;;;;;;;;;;;6.34;35.03;100450.72;3134186;28;19967;-70
2022/03/24 00:40:09;;;;;;;;;;;;;;;6.32;35.17;100451.63;3122123;28;19921;-70
2022/03/24 00:41:42;;;;;;;;;;;;;;;6.31;35.20;100447.34;3121602;28;20016;-69
2022/03/24 00:43:13;;;;;;;;;;;;;;;6.29;35.18;100446.50;3131619;28;19944;-69
2022/03/24 00:44:44;;;;;;;;;;;;;;;6.26;35.27;100446.56;3124303;28;19928;-69
2022/03/24 00:46:16;;;;;;;;;;;;;;;6.26;35.27;100446.56;3133377;28;20310;-70
2022/03/24 00:47:47;;;;;;;;;;;;;;;6.23;35.38;100442.28;3131063;28;19924;-71
2022/03/24 00:49:20;;;;;;;;;;;;;;;6.22;35.47;100442.34;3137409;28;19925;-71
2022/03/24 00:50:52;;;;;;;;;;;;;;;6.19;35.58;100440.66;3128507;28;19939;-69
2022/03/24 00:52:24;;;;;;;;;;;;;;;6.18;35.56;100438.91;3134581;28;19936;-69
2022/03/24 00:53:57;;;;;;;;;;;;;;;6.14;35.66;100434.69;3128193;28;19925;-69
2022/03/24 00:55:29;;;;;;;;;;;;;;;6.12;35.76;100434.72;3133194;28;19944;-70
2022/03/24 00:57:01;;;;;;;;;;;;;;;6.10;35.80;100433.03;3130978;28;20322;-69
2022/03/24 00:58:33;;;;;;;;;;;;;;;6.07;35.91;100436.53;3134149;28;19964;-69
2022/03/24 01:00:05;;;;;;;;;;;;;;;6.04;35.98;100430.56;3132686;28;19921;-68
2022/03/24 01:01:39;;;;;;;;;;;;;;;6.00;36.08;100416.81;3131514;28;19920;-69
2022/03/24 01:03:11;;;;;;;;;;;;;;;5.97;36.20;100432.38;3125540;28;19929;-69
2022/03/24 01:04:42;;;;;;;;;;;;;;;5.94;36.33;100422.09;3126790;28;19993;-69
2022/03/24 01:06:16;;;;;;;;;;;;;;;5.92;36.26;100424.69;3123925;28;19920;-69
2022/03/24 01:07:48;;;;;;;;;;;;;;;5.86;36.67;100424.78;3129363;28;20302;-69
2022/03/24 01:09:21;;;;;;;;;;;;;;;5.84;36.68;100434.28;3131260;28;19932;-69
2022/03/24 01:10:55;;;;;;;;;;;;;;;5.76;37.81;100430.09;3126867;28;19924;-69
2022/03/24 01:12:26;;;;;;;;;;;;;;;5.71;37.57;100430.19;3131390;28;19928;-69
2022/03/24 01:13:58;;;;;;;;;;;;;;;5.68;37.45;100419.91;3133840;28;19921;-69
2022/03/24 01:15:31;;;;;;;;;;;;;;;5.68;37.49;100418.16;3133187;28;20340;-69
2022/03/24 01:17:04;;;;;;;;;;;;;;;5.66;37.31;100417.31;3132614;28;19925;-69
2022/03/24 01:18:37;;;;;;;;;;;;;;;5.63;37.33;100408.78;3120712;28;19925;-70
2022/03/24 01:20:09;;;;;;;;;;;;;;;5.62;37.60;100415.69;3129875;28;20015;-71
2022/03/24 01:21:41;;;;;;;;;;;;;;;5.59;38.05;100409.66;3131338;28;19924;-70
2022/03/24 01:23:13;;;;;;;;;;;;;;;5.53;38.05;100418.41;3131992;28;19982;-70
2022/03/24 01:24:46;;;;;;;;;;;;;;;5.49;38.62;100416.72;3122229;28;19921;-70
2022/03/24 01:26:18;;;;;;;;;;;;;;;5.44;38.43;100408.16;3130553;28;19924;-70
2022/03/24 01:27:50;;;;;;;;;;;;;;;5.40;38.42;100403.94;3126715;28;19920;-70
2022/03/24 01:29:23;;;;;;;;;;;;;;;5.40;38.19;100401.34;3122609;28;19974;-68
2022/03/24 01:30:54;;;;;;;;;;;;;;;5.40;38.11;100396.19;3130984;28;19931;-68
2022/03/24 01:32:26;;;;;;;;;;;;;;;5.39;38.30;100400.50;3132637;28;19920;-70
2022/03/24 01:33:58;;;;;;;;;;;;;;;5.40;38.14;100406.53;3124350;28;20028;-69
2022/03/24 01:35:30;;;;;;;;;;;;;;;5.38;38.21;100395.34;3132945;28;20325;-67
2022/03/24 01:37:01;;;;;;;;;;;;;;;5.37;38.11;100396.22;3136985;28;19993;-68
2022/03/24 01:38:33;;;;;;;;;;;;;;;5.36;38.24;100391.94;3129898;28;20447;-71
2022/03/24 01:40:07;;;;;;;;;;;;;;;5.34;38.24;100396.28;3131847;28;19920;-69
2022/03/24 01:41:40;;;;;;;;;;;;;;;5.32;38.56;100398.03;3122362;28;20342;-69
2022/03/24 01:43:11;;;;;;;;;;;;;;;5.29;38.27;100391.16;3131380;28;19927;-69
2022/03/24 01:44:46;;;;;;;;;;;;;;;5.30;38.25;100392.03;3133893;28;20236;-69
2022/03/24 01:46:22;;;;;;;;;;;;;;;5.27;38.74;100392.09;3132682;28;20542;-69
2022/03/24 01:47:53;;;;;;;;;;;;;;;5.24;38.63;100391.25;3128245;28;19931;-69
2022/03/24 01:49:25;;;;;;;;;;;;;;;5.23;38.62;100391.25;3123857;28;19990;-69
2022/03/24 01:50:57;;;;;;;;;;;;;;;5.23;38.61;100393.84;3127094;28;20738;-69
2022/03/24 01:52:28;;;;;;;;;;;;;;;5.22;38.69;100389.56;3132619;28;20445;-69
2022/03/24 01:54:00;;;;;;;;;;;;;;;5.20;38.63;100399.03;3133608;28;19928;-69
2022/03/24 01:55:34;;;;;;;;;;;;;;;5.19;38.74;100387.00;3131986;28;19925;-70
2022/03/24 01:57:08;;;;;;;;;;;;;;;5.16;39.04;100393.06;3132845;28;20398;-70
2022/03/24 01:58:40;;;;;;;;;;;;;;;5.15;38.91;100385.38;3130404;28;20007;-69
2022/03/24 02:00:13;;;;;;;;;;;;;;;5.14;38.99;100394.81;3126711;28;20018;-70
2022/03/24 02:01:45;;;;;;;;;;;;;;;5.13;38.96;100387.94;3132598;28;20317;-69
2022/03/24 02:03:17;;;;;;;;;;;;;;;5.12;38.93;100396.59;3133023;28;20360;-70
2022/03/24 02:04:48;;;;;;;;;;;;;;;5.11;38.96;100391.41;3132348;28;19928;-70
2022/03/24 02:06:20;;;;;;;;;;;;;;;5.10;38.92;100397.47;3131895;28;20362;-70
2022/03/24 02:07:52;;;;;;;;;;;;;;;5.09;39.04;100395.75;3131890;28;20068;-70
2022/03/24 02:09:24;;;;;;;;;;;;;;;5.07;39.04;100398.34;3120831;28;19921;-71
2022/03/24 02:10:57;;;;;;;;;;;;;;;5.05;39.07;100399.25;3128197;28;19987;-70
2022/03/24 02:12:29;;;;;;;;;;;;;;;5.02;39.06;100398.41;3130706;28;19920;-70
2022/03/24 02:14:00;;;;;;;;;;;;;;;5.01;39.24;100393.28;3127559;28;19984;-71
2022/03/24 02:15:32;;;;;;;;;;;;;;;5.00;39.24;100396.75;3120707;28;20376;-69
2022/03/24 02:17:05;;;;;;;;;;;;;;;4.98;39.26;100398.47;3124041;28;20415;-70
2022/03/24 02:18:35;;;;;;;;;;;;;;;4.96;39.55;100395.91;3120332;28;19929;-70
2022/03/24 02:20:09;;;;;;;;;;;;;;;4.93;39.58;100393.38;3124008;28;19925;-70
2022/03/24 02:21:40;;;;;;;;;;;;;;;4.90;39.62;100392.56;3124575;28;19924;-69
2022/03/24 02:23:15;;;;;;;;;;;;;;;4.84;39.73;100384.88;3132148;28;20054;-70
2022/03/24 02:24:47;;;;;;;;;;;;;;;4.76;39.80;100385.84;3123968;28;19928;-70
2022/03/24 02:26:18;;;;;;;;;;;;;;;4.65;40.03;100385.13;3132134;28;19924;-70
2022/03/24 02:27:55;;;;;;;;;;;;;;;4.55;40.15;100388.66;3131603;28;19925;-70
2022/03/24 02:29:26;;;;;;;;;;;;;;;4.48;40.17;100384.44;3120489;28;19975;-69
2022/03/24 02:30:58;;;;;;;;;;;;;;;4.41;40.23;100387.94;3129892;28;19928;-70
2022/03/24 02:32:29;;;;;;;;;;;;;;;4.35;40.24;100388.91;3128160;28;19921;-69
2022/03/24 02:35:48;;;;;;;;;;;;;;;4.25;40.50;100389.84;3120036;28;19925;-70
2022/03/24 02:37:19;;;;;;;;;;;;;;;4.20;40.46;100382.16;3125855;28;19945;-70
2022/03/24 02:38:52;;;;;;;;;;;;;;;4.16;40.64;100385.63;3125960;28;20295;-69
2022/03/24 02:40:25;;;;;;;;;;;;;;;4.12;40.61;100381.38;3133297;28;19989;-69
2022/03/24 02:41:56;;;;;;;;;;;;;;;4.09;40.72;100389.13;3131573;28;19971;-69
2022/03/24 02:43:28;;;;;;;;;;;;;;;4.05;40.80;100379.72;3132284;28;19925;-69
2022/03/24 02:45:02;;;;;;;;;;;;;;;4.01;40.80;100375.47;3125708;28;19921;-69
2022/03/24 02:46:33;;;;;;;;;;;;;;;3.98;41.03;100380.66;3120106;28;19925;-69
2022/03/24 02:48:04;;;;;;;;;;;;;;;3.95;41.08;100375.53;3122030;28;20038;-70
2022/03/24 02:49:36;;;;;;;;;;;;;;;3.91;41.14;100371.28;3130251;28;19924;-69
2022/03/24 02:51:08;;;;;;;;;;;;;;;3.87;41.21;100376.44;3129426;28;20019;-68
2022/03/24 02:52:39;;;;;;;;;;;;;;;3.84;41.32;100375.59;3129449;28;19998;-68
2022/03/24 02:54:12;;;;;;;;;;;;;;;3.81;41.42;100373.91;3132001;28;20023;-70
2022/03/24 02:55:43;;;;;;;;;;;;;;;3.78;41.33;100371.34;3130934;28;19978;-70
2022/03/24 02:57:14;;;;;;;;;;;;;;;3.73;41.90;100377.44;3124263;28;19921;-71
2022/03/24 02:58:46;;;;;;;;;;;;;;;3.68;41.75;100380.03;3130518;28;20314;-68
2022/03/24 03:00:18;;;;;;;;;;;;;;;3.64;41.77;100368.91;3132062;28;20008;-69
2022/03/24 03:01:53;;;;;;;;;;;;;;;3.61;41.69;100371.50;3130240;28;19921;-68
2022/03/24 03:03:24;;;;;;;;;;;;;;;3.58;41.66;100375.81;3126341;28;19920;-68
2022/03/24 03:04:56;;;;;;;;;;;;;;;3.55;41.87;100371.56;3125769;28;19925;-69
2022/03/24 03:06:26;;;;;;;;;;;;;;;3.53;41.82;100372.44;3129491;28;19979;-68
2022/03/24 03:07:58;;;;;;;;;;;;;;;3.52;41.90;100370.69;3131749;28;19924;-69
2022/03/24 03:09:30;;;;;;;;;;;;;;;3.39;41.97;100352.75;3126786;28;19951;-69
2022/03/24 03:11:02;;;;;;;;;;;;;;;3.48;42.55;100369.03;3128247;28;20073;-70
2022/03/24 03:12:34;;;;;;;;;;;;;;;3.46;42.30;100368.16;3119913;28;20454;-70
2022/03/24 03:14:04;;;;;;;;;;;;;;;3.46;42.16;100368.16;3122312;28;19987;-69
2022/03/24 03:15:36;;;;;;;;;;;;;;;3.47;42.27;100362.16;3127886;28;20446;-68
2022/03/24 03:17:08;;;;;;;;;;;;;;;3.46;42.41;100357.88;3119730;28;19994;-68
2022/03/24 03:18:41;;;;;;;;;;;;;;;3.31;42.42;100333.09;3130789;28;19924;-69
2022/03/24 03:20:13;;;;;;;;;;;;;;;3.46;42.43;100358.75;3122155;28;20373;-69
2022/03/24 03:21:44;;;;;;;;;;;;;;;3.45;42.37;100356.16;3129436;28;20449;-69
2022/03/24 03:23:16;;;;;;;;;;;;;;;3.44;42.61;100354.47;3127512;28;19921;-69
2022/03/24 03:24:49;;;;;;;;;;;;;;;3.45;42.62;100351.03;3132833;28;19985;-71
2022/03/24 03:26:20;;;;;;;;;;;;;;;3.46;42.60;100358.75;3125918;28;19924;-69
2022/03/24 03:27:51;;;;;;;;;;;;;;;3.45;42.70;100345.88;3122844;28;19978;-69
2022/03/24 03:29:23;;;;;;;;;;;;;;;3.46;42.74;100363.03;3132178;28;19979;-69
2022/03/24 03:30:55;;;;;;;;;;;;;;;3.45;42.63;100351.88;3131578;28;19960;-70
2022/03/24 03:32:26;;;;;;;;;;;;;;;3.45;42.58;100358.75;3126924;28;19921;-70
2022/03/24 03:33:58;;;;;;;;;;;;;;;3.44;42.76;100355.31;3124926;28;19921;-70
2022/03/24 03:35:30;;;;;;;;;;;;;;;3.44;42.77;100352.75;3123228;28;19921;-70
2022/03/24 03:37:01;;;;;;;;;;;;;;;3.44;42.86;100359.63;3125157;28;20024;-69
2022/03/24 03:38:33;;;;;;;;;;;;;;;3.42;43.07;100355.31;3128078;28;19929;-69
2022/03/24 03:40:07;;;;;;;;;;;;;;;3.41;43.17;100356.19;3127914;28;19978;-69
2022/03/24 03:41:39;;;;;;;;;;;;;;;3.41;43.22;100356.19;3133025;28;19944;-69
2022/03/24 03:43:11;;;;;;;;;;;;;;;3.38;43.23;100356.22;3122879;28;20314;-69
2022/03/24 03:44:43;;;;;;;;;;;;;;;3.38;43.12;100356.22;3119107;28;19929;-69
2022/03/24 03:46:13;;;;;;;;;;;;;;;3.37;43.19;100356.22;3122884;28;19982;-69
2022/03/24 03:47:45;;;;;;;;;;;;;;;3.36;43.27;100355.38;3120152;28;20004;-68
2022/03/24 03:49:18;;;;;;;;;;;;;;;3.36;43.42;100350.22;3125216;28;19921;-71
2022/03/24 03:50:49;;;;;;;;;;;;;;;3.35;43.43;100352.81;3136670;28;19929;-71
2022/03/24 03:52:21;;;;;;;;;;;;;;;3.34;43.62;100359.69;3133410;28;19925;-69
2022/03/24 03:53:52;;;;;;;;;;;;;;;3.32;43.56;100353.69;3131875;28;20259;-69
2022/03/24 03:55:24;;;;;;;;;;;;;;;3.32;43.76;100347.69;3132459;28;20020;-69
2022/03/24 03:56:58;;;;;;;;;;;;;;;3.32;43.54;100347.69;3126497;28;20247;-68
2022/03/24 03:58:29;;;;;;;;;;;;;;;3.33;43.47;100354.53;3135482;28;19932;-69
2022/03/24 04:00:52;;;;;;;;;;;;;;;3.32;43.88;100339.97;3126653;28;19921;-69
2022/03/24 04:01:55;;;;;;;;;;;;;;;3.33;43.75;100346.81;3125833;28;20011;-69
2022/03/24 04:03:26;;;;;;;;;;;;;;;3.32;43.68;100342.53;3133605;28;20361;-69
2022/03/24 04:04:59;;;;;;;;;;;;;;;3.33;43.70;100344.25;3133556;28;19920;-69
2022/03/24 04:06:30;;;;;;;;;;;;;;;3.33;43.71;100345.09;3135387;28;19929;-69
2022/03/24 04:08:01;;;;;;;;;;;;;;;3.34;43.84;100336.53;3122807;28;19925;-69
2022/03/24 04:09:33;;;;;;;;;;;;;;;3.34;43.70;100344.25;3132465;28;20485;-68
2022/03/24 04:11:07;;;;;;;;;;;;;;;3.36;43.69;100346.78;3132874;28;19924;-69
2022/03/24 04:12:39;;;;;;;;;;;;;;;3.35;43.83;100342.53;3135828;28;19921;-69
2022/03/24 04:14:11;;;;;;;;;;;;;;;3.35;43.79;100338.22;3125622;28;20645;-70
2022/03/24 04:15:42;;;;;;;;;;;;;;;3.36;43.81;100336.50;3127569;28;19930;-69
2022/03/24 04:17:15;;;;;;;;;;;;;;;3.35;43.92;100343.38;3127940;28;19986;-69
2022/03/24 04:18:47;;;;;;;;;;;;;;;3.35;44.03;100343.38;3125878;28;19994;-70
2022/03/24 04:20:20;;;;;;;;;;;;;;;3.34;44.01;100344.25;3132544;28;19928;-70
2022/03/24 04:21:52;;;;;;;;;;;;;;;3.34;44.07;100346.81;3123164;28;19921;-70
2022/03/24 04:23:24;;;;;;;;;;;;;;;3.33;44.15;100339.94;3128325;28;19920;-69
2022/03/24 04:24:56;;;;;;;;;;;;;;;3.36;44.12;100337.34;3133526;28;19927;-69
2022/03/24 04:26:28;;;;;;;;;;;;;;;3.36;44.02;100324.47;3133606;28;19935;-70
2022/03/24 04:28:00;;;;;;;;;;;;;;;3.38;44.12;100335.63;3121739;28;19932;-69
2022/03/24 04:29:32;;;;;;;;;;;;;;;3.39;44.13;100332.16;3122920;28;20006;-69
2022/03/24 04:31:04;;;;;;;;;;;;;;;3.42;44.13;100337.28;3125506;28;20371;-69
2022/03/24 04:32:34;;;;;;;;;;;;;;;3.44;44.16;100323.56;3129338;28;20041;-69
2022/03/24 04:34:06;;;;;;;;;;;;;;;3.45;44.47;100325.28;3127847;28;20481;-69
2022/03/24 04:35:38;;;;;;;;;;;;;;;3.46;44.23;100320.13;3124013;28;20390;-69
2022/03/24 04:37:10;;;;;;;;;;;;;;;3.49;44.26;100324.38;3132085;28;19968;-69
2022/03/24 04:38:41;;;;;;;;;;;;;;;3.52;44.21;100324.34;3133364;28;19920;-69
2022/03/24 04:40:13;;;;;;;;;;;;;;;3.55;44.16;100321.75;3131394;28;20410;-69
2022/03/24 04:41:46;;;;;;;;;;;;;;;3.59;44.22;100328.59;3122530;28;20276;-68
2022/03/24 04:43:17;;;;;;;;;;;;;;;3.61;44.32;100326.88;3128233;28;19925;-69
2022/03/24 04:44:48;;;;;;;;;;;;;;;3.65;44.09;100323.41;3132193;28;20371;-68
2022/03/24 04:46:19;;;;;;;;;;;;;;;3.69;44.24;100326.78;3131317;28;19971;-69
2022/03/24 04:47:51;;;;;;;;;;;;;;;3.73;44.09;100321.63;3126586;28;19978;-69
2022/03/24 04:49:22;;;;;;;;;;;;;;;3.78;44.06;100332.72;3138342;28;19931;-69
2022/03/24 04:50:54;;;;;;;;;;;;;;;3.83;44.14;100330.09;3126828;28;19924;-69
2022/03/24 04:52:24;;;;;;;;;;;;;;;3.88;44.05;100325.78;3134171;28;20343;-70
2022/03/24 04:53:57;;;;;;;;;;;;;;;3.94;43.95;100327.44;3126979;28;19928;-70
2022/03/24 04:55:28;;;;;;;;;;;;;;;3.99;43.98;100325.66;3122319;28;19928;-70
2022/03/24 04:57:01;;;;;;;;;;;;;;;4.05;43.88;100333.31;3132937;28;19920;-70
2022/03/24 04:58:34;;;;;;;;;;;;;;;4.11;43.98;100330.69;3133020;28;19987;-71
2022/03/24 05:00:08;;;;;;;;;;;;;;;4.03;43.80;100311.88;3136128;28;19920;-70
2022/03/24 05:01:40;;;;;;;;;;;;;;;4.24;43.65;100327.13;3131934;28;19921;-70
2022/03/24 05:03:12;;;;;;;;;;;;;;;4.31;43.68;100322.75;3134187;28;20306;-70
2022/03/24 05:04:42;;;;;;;;;;;;;;;4.39;43.58;100341.56;3121806;28;20389;-70
2022/03/24 05:06:15;;;;;;;;;;;;;;;4.45;43.71;100335.47;3135741;28;20054;-69
2022/03/24 05:07:46;;;;;;;;;;;;;;;4.51;43.55;100336.25;3127437;28;19937;-69
2022/03/24 05:09:18;;;;;;;;;;;;;;;4.60;43.45;100337.03;3122574;28;19947;-70
2022/03/24 05:10:50;;;;;;;;;;;;;;;4.66;43.31;100335.22;3128340;28;19925;-69
2022/03/24 05:12:23;;;;;;;;;;;;;;;4.73;43.21;100336.88;3130776;28;19925;-69
2022/03/24 05:13:54;;;;;;;;;;;;;;;4.83;43.16;100329.00;3125001;28;19921;-70
2022/03/24 05:15:26;;;;;;;;;;;;;;;4.88;43.29;100325.50;3132621;28;19968;-70
2022/03/24 05:16:58;;;;;;;;;;;;;;;4.87;43.10;100310.00;3123457;28;19995;-70
2022/03/24 05:18:29;;;;;;;;;;;;;;;5.03;43.16;100329.59;3130984;28;19943;-70
2022/03/24 05:20:01;;;;;;;;;;;;;;;5.12;42.90;100329.47;3133761;28;19921;-70
2022/03/24 05:21:33;;;;;;;;;;;;;;;5.18;42.95;100329.38;3131182;28;19924;-69
2022/03/24 05:23:05;;;;;;;;;;;;;;;5.26;42.94;100316.31;3134105;28;19968;-70
2022/03/24 05:24:37;;;;;;;;;;;;;;;5.37;42.67;100316.16;3132009;28;20302;-70
2022/03/24 05:26:08;;;;;;;;;;;;;;;5.47;42.58;100317.72;3132724;28;20325;-70
2022/03/24 05:27:41;;;;;;;;;;;;;;;5.57;42.39;100327.03;3125150;28;20010;-70
2022/03/24 05:29:12;;;;;;;;;;;;;;;5.66;42.41;100319.13;3120988;28;19921;-70
2022/03/24 05:30:44;;;;;;;;;;;;;;;5.77;42.20;100321.53;3130152;28;20676;-70
2022/03/24 05:32:14;;;;;;;;;;;;;;;5.86;42.10;100308.47;3128890;28;19920;-70
2022/03/24 05:33:46;;;;;;;;;;;;;;;5.96;41.83;100319.50;3130636;28;20421;-70
2022/03/24 05:35:17;;;;;;;;;;;;;;;6.07;41.80;100307.25;3129452;28;19978;-70
2022/03/24 05:36:48;;;;;;;;;;;;;;;6.17;41.69;100309.66;3133169;28;20026;-70
2022/03/24 05:38:20;;;;;;;;;;;;;;;6.27;41.52;100306.00;3131088;28;19925;-70
2022/03/24 05:39:51;;;;;;;;;;;;;;;6.37;41.45;100302.38;3129776;28;20439;-70
2022/03/24 05:41:23;;;;;;;;;;;;;;;6.49;41.35;100309.03;3129726;28;19925;-70
2022/03/24 05:42:56;;;;;;;;;;;;;;;6.58;41.13;100308.84;3114397;28;20128;-69
2022/03/24 05:44:28;;;;;;;;;;;;;;;6.68;41.07;100306.91;3122655;28;19925;-69
2022/03/24 05:45:59;;;;;;;;;;;;;;;6.79;40.95;100317.88;3120989;28;20218;-69
2022/03/24 05:47:31;;;;;;;;;;;;;;;6.89;40.71;100309.06;3122339;28;19998;-68
2022/03/24 05:49:04;;;;;;;;;;;;;;;7.00;40.65;100319.16;3121761;28;19932;-68
2022/03/24 05:50:37;;;;;;;;;;;;;;;7.10;40.55;100312.91;3122318;28;20374;-69
2022/03/24 05:52:09;;;;;;;;;;;;;;;7.21;40.42;100318.66;3122341;28;20219;-70
2022/03/24 05:53:40;;;;;;;;;;;;;;;7.35;40.25;100313.16;3121424;28;20446;-69
2022/03/24 05:55:12;;;;;;;;;;;;;;;7.45;40.22;100317.25;3120882;28;19925;-69
2022/03/24 05:56:43;;;;;;;;;;;;;;;7.58;40.02;100316.97;3122430;28;19928;-70
2022/03/24 05:58:17;;;;;;;;;;;;;;;7.71;39.90;100307.97;3121822;28;19935;-70
2022/03/24 05:59:49;;;;;;;;;;;;;;;7.87;39.86;100306.69;3121680;28;19999;-70
2022/03/24 06:01:23;;;;;;;;;;;;;;;8.05;39.66;100305.38;3120370;28;19924;-69
2022/03/24 06:02:55;;;;;;;;;;;;;;;8.23;39.44;100306.63;3122673;28;20170;-70
2022/03/24 06:04:29;;;;;;;;;;;;;;;8.45;39.15;100314.66;3122336;28;19936;-66
2022/03/24 06:06:01;;;;;;;;;;;;;;;8.71;38.80;100310.50;3122065;28;20387;-66
2022/03/24 06:07:33;;;;;;;;;;;;;;;9.03;38.54;100314.72;3121318;28;19928;-64
2022/03/24 06:09:06;;;;;;;;;;;;;;;9.68;38.29;100316.13;3121745;28;20589;-64
2022/03/24 06:10:37;;;;;;;;;;;;;;;10.95;37.84;100297.72;3119554;28;20169;-64
2022/03/24 06:12:10;;;;;;;;;;;;;;;12.62;37.03;100308.97;3118796;28;19925;-64
2022/03/24 06:13:45;;;;;;;;;;;;;;;14.41;35.56;100301.97;3121966;28;19924;-63
2022/03/24 06:15:17;;;;;;;;;;;;;;;16.19;33.71;100302.44;3123986;28;19985;-65
2022/03/24 06:16:49;;;;;;;;;;;;;;;17.85;32.20;100301.47;3117046;28;20712;-63
2022/03/24 06:18:21;;;;;;;;;;;;;;;19.39;30.34;100298.59;3115424;28;20003;-63
2022/03/24 06:19:53;;;;;;;;;;;;;;;20.83;28.70;100295.50;3116153;28;19931;-67
2022/03/24 06:21:25;;;;;;;;;;;;;;;22.14;27.27;100286.38;3124140;28;19982;-67
2022/03/24 06:22:57;;;;;;;;;;;;;;;23.32;25.21;100283.97;3114448;28;19925;-67
2022/03/24 06:24:29;;;;;;;;;;;;;;;24.44;24.52;100288.69;3123083;28;20517;-67
2022/03/24 06:26:01;;;;;;;;;;;;;;;25.42;22.74;100276.44;3127342;28;19929;-67
2022/03/24 06:27:33;;;;;;;;;;;;;;;26.25;22.06;100284.88;3117419;28;19929;-68
2022/03/24 06:29:13;;;;;;;;;;;;;;;27.12;20.91;100282.03;3120488;28;19991;-68
2022/03/24 06:30:45;;;;;;;;;;;;;;;28.02;20.33;100280.25;3112387;28;19979;-68
2022/03/24 06:32:17;;;;;;;;;;;;;;;28.83;19.66;100285.47;3122773;28;20473;-69
2022/03/24 06:33:49;;;;;;;;;;;;;;;29.59;18.62;100279.28;3123028;28;19924;-68
2022/03/24 06:35:21;;;;;;;;;;;;;;;30.31;18.19;100283.28;3121502;28;20150;-69
2022/03/24 06:36:54;;;;;;;;;;;;;;;31.04;17.15;100278.81;3117913;28;20347;-69
2022/03/24 06:38:24;;;;;;;;;;;;;;;31.75;16.62;100269.97;3113263;28;20816;-69
2022/03/24 06:39:56;;;;;;;;;;;;;;;32.41;15.86;100271.19;3117950;28;19925;-69
2022/03/24 06:41:28;;;;;;;;;;;;;;;33.04;15.57;100275.59;3122174;28;19928;-70
2022/03/24 06:43:00;;;;;;;;;;;;;;;33.65;14.93;100267.38;3120217;28;19925;-69
2022/03/24 06:44:35;;;;;;;;;;;;;;;34.13;14.35;100266.28;3126584;28;19983;-68
2022/03/24 06:46:07;;;;;;;;;;;;;;;34.54;13.90;100263.25;3113683;28;19925;-73
2022/03/24 06:47:40;;;;;;;;;;;;;;;34.90;13.57;100272.63;3120132;28;20035;-72
2022/03/24 06:49:11;;;;;;;;;;;;;;;35.30;13.10;100272.41;3125435;28;19924;-62
2022/03/24 06:50:43;;;;;;;;;;;;;;;35.69;12.91;100276.69;3118106;28;19971;-67
2022/03/24 06:52:15;;;;;;;;;;;;;;;36.11;12.69;100274.19;3111283;28;19933;-64
2022/03/24 06:53:47;;;;;;;;;;;;;;;36.42;12.13;100284.06;3117901;28;20037;-65
2022/03/24 06:55:19;;;;;;;;;;;;;;;36.64;11.32;100270.88;3122584;28;20477;-66
2022/03/24 06:56:51;;;;;;;;;;;;;;;36.60;11.50;100268.84;3121300;28;19925;-65
2022/03/24 06:58:23;;;;;;;;;;;;;;;36.67;11.55;100275.00;3119825;28;20165;-65
2022/03/24 06:59:57;;;;;;;;;;;;;;;36.86;11.25;100279.34;3122595;28;19929;-65
2022/03/24 07:01:28;;;;;;;;;;;;;;;37.01;11.02;100281.66;3118945;28;19925;-67
2022/03/24 07:03:01;;;;;;;;;;;;;;;37.25;11.15;100282.56;3116158;28;19929;-64
2022/03/24 07:04:33;;;;;;;;;;;;;;;37.38;10.65;100278.78;3118595;28;19935;-65
2022/03/24 07:06:05;;;;;;;;;;;;;;;37.40;10.54;100273.13;3122243;28;20031;-73
2022/03/24 07:07:35;;;;;;;;;;;;;;;37.59;10.61;100273.88;3121891;28;20030;-71
2022/03/24 07:09:07;;;;;;;;;;;;;;;37.84;10.64;100277.19;3121085;28;19936;-72
2022/03/24 07:10:39;;;;;;;;;;;;;;;38.01;10.22;100275.44;3122026;28;19978;-68
2022/03/24 07:12:11;;;;;;;;;;;;;;;38.07;10.35;100262.78;3121659;28;19990;-69
2022/03/24 07:13:43;;;;;;;;;;;;;;;38.19;9.86;100266.31;3121286;28;19924;-68
2022/03/24 07:15:17;;;;;;;;;;;;;;;38.22;9.73;100265.00;3119481;28;20436;-67
2022/03/24 07:16:48;;;;;;;;;;;;;;;38.11;9.58;100266.66;3119500;28;20369;-68
2022/03/24 07:18:20;;;;;;;;;;;;;;;38.04;9.90;100268.69;3121287;28;19924;-68
2022/03/24 07:19:52;;;;;;;;;;;;;;;37.87;9.76;100265.84;3119731;28;19951;-69
2022/03/24 07:21:23;;;;;;;;;;;;;;;37.60;9.69;100273.66;3121293;28;19925;-67
2022/03/24 07:22:57;;;;;;;;;;;;;;;37.43;9.74;100272.66;3120895;28;19929;-69
2022/03/24 07:24:29;;;;;;;;;;;;;;;37.16;10.18;100273.09;3120325;28;19925;-68
2022/03/24 07:26:01;;;;;;;;;;;;;;;36.89;10.23;100278.88;3122410;28;19931;-68
2022/03/24 07:27:33;;;;;;;;;;;;;;;36.69;10.21;100266.66;3121990;28;19924;-68
2022/03/24 07:29:10;;;;;;;;;;;;;;;36.43;10.10;100263.19;3120928;28;20005;-68
2022/03/24 07:30:50;;;;;;;;;;;;;;;36.05;10.41;100266.13;3115740;28;19954;-69
2022/03/24 07:32:22;;;;;;;;;;;;;;;35.38;10.44;100269.44;3123423;28;19933;-69
2022/03/24 07:33:55;;;;;;;;;;;;;;;34.71;10.80;100277.13;3123980;28;20115;-65
2022/03/24 07:35:28;;;;;;;;;;;;;;;34.32;10.94;100272.69;3113971;28;20018;-66
2022/03/24 07:37:00;;;;;;;;;;;;;;;33.94;11.29;100274.19;3123372;28;19925;-66
2022/03/24 07:38:32;;;;;;;;;;;;;;;33.54;11.54;100281.50;3122516;28;19924;-64
2022/03/24 07:40:05;;;;;;;;;;;;;;;33.22;11.58;100277.75;3125198;28;20500;-65
2022/03/24 07:41:37;;;;;;;;;;;;;;;32.94;11.83;100272.47;3119186;28;20178;-67
2022/03/24 07:43:09;;;;;;;;;;;;;;;32.55;11.70;100282.09;3129300;28;19932;-67
2022/03/24 07:44:40;;;;;;;;;;;;;;;32.10;11.93;100278.94;3126962;28;19971;-66
2022/03/24 07:46:13;;;;;;;;;;;;;;;31.66;12.29;100270.09;3127440;28;20325;-66
2022/03/24 07:48:05;;;;;;;;;;;;;;;31.22;12.23;100255.00;3120468;28;19929;-66
2022/03/24 07:49:38;;;;;;;;;;;;;;;30.91;12.74;100274.16;3130813;28;19921;-63
2022/03/24 07:51:09;;;;;;;;;;;;;;;30.49;12.99;100270.28;3132688;28;19948;-66
2022/03/24 07:52:41;;;;;;;;;;;;;;;30.10;13.11;100271.41;3132384;28;19924;-65
2022/03/24 07:54:13;;;;;;;;;;;;;;;29.77;13.42;100265.53;3128603;28;19924;-66
2022/03/24 07:55:45;;;;;;;;;;;;;;;29.42;13.33;100275.88;3131614;28;19939;-65
2022/03/24 07:57:17;;;;;;;;;;;;;;;29.13;13.70;100279.28;3132080;28;19925;-68
2022/03/24 07:58:48;;;;;;;;;;;;;;;28.88;13.44;100280.44;3132742;28;19921;-64
2022/03/24 08:00:22;;;;;;;;;;;;;;;28.53;13.74;100278.09;3126568;28;20001;-63